Krizevci, Croatia

1:32 AM CEST on September 02, 2014 (GMT +0200)
Trnovec Bartolovecki | Change Station
CLOSE
Current Station
Personal Weather Station
Location: Trnovec Bartolovecki, Podravina
Elevation: 539 ft
Nearby Weather Stations

Elev 539 ft 46.29 °N, 16.40 °E | Updated 1 minute ago

Clear
Clear
58.0 °F
Feels Like 58.0 °F
N
5.0
Wind Variable Wind from NNW
Gusts 12.0 mph

Today
High -- | Low -- °F
--% Chance of Precip.
Yesterday
High -- | Low -- °F
Precip. -- in
6:15 AM 7:30 PM
Waxing Crescent, 45% visible
Pressure 29.83 in
Visibility -9999.0 miles
Clouds
Dew Point 55 °F
Humidity 91%
Rainfall 0.13 in
Snow Depth Not available.
UV 0.0 out of 12
Pollen Not available.
Air Quality Not available.
Flu Activity Not available.
METAR LDZA 012330Z 03013KT 360V070 CAVOK 16/12 Q1010 NOSIG

More Conditions Fewer Conditions

Pressure 29.83 in
Visibility -9999.0 miles
Clouds
Dew Point 55 °F
Humidity 91%
Rainfall 0.13 in
Snow Depth Not available.
UV 0.0 out of 12
Pollen Not available.
Air Quality Not available.
Flu Activity Not available.
METAR LDZA 012330Z 03013KT 360V070 CAVOK 16/12 Q1010 NOSIG

More Conditions Fewer Conditions

10-Day Weather Forecast

Almanac

Astronomy

Sep. 02, 2014 Rise Set
Actual Time 6:15 AM CEST 7:30 PM CEST
Civil Twilight 5:44 AM CEST 8:01 PM CEST
Nautical Twilight 5:07 AM CEST 8:38 PM CEST
Astronomical Twilight 4:27 AM CEST 9:17 PM CEST
Moon 2:05 PM CEST (9/2) 11:45 PM CEST (9/2)
Length of Visible Light 14h 17m
Length of Day
13h 15m
Tomorrow will be 3m 8s shorter.
Waxing Crescent, 45% of the Moon is Illuminated
Sep 1
Waxing Crescent
Sep 2
First Quarter
Sep 8
Full
Sep 15
Last Quarter
Sep 24
New

Yesterday's Extremes

Country Highs Country Lows

Community

WunderPhotos

Upload Photos

1,749,440 photos uploaded!

Nearby

Snow Depth

Not available.

Earthquake Activity

City Distance Mag. Time & Date
No recent earthquake activity has been reported nearby.
Minimum magnitude displayed is 2.5.

Coastal Water Temperatures

Place Temperature
No Stations Reporting

Nearby Weather Stations